ジュノー の空港の天気 - METARとTAF

ジュノー国際空港 ( PAJN / JNU ) - アメリカ アラスカ州ジュノー
飛行場実況気象(Metar)
観測時間08/04 14:53 AKDT (08/04 22:53 UTC)
風向・風速東南東 7m/s
視程10km以上
天気現象弱い雨
少しの雲 雲底高度 120m
全天の8割程度の雲 雲底高度 1040m
全天を覆う雲 雲底高度 2130m
気温15.6℃
湿度80%
気圧1010.3hPa
METARPAJN 042253Z 11014KT 10SM -RA FEW004 BKN034 OVC070 16/12 A2984 RMK AO2 SLP103 PCPN INTMT AND VRY LGT P0000 T01560122 $
過去の天気等 Google飛行場航空写真 Wunderground天気予報

過去48時間のMETAR

飛行場予報(TAF)
発表時間: 8/04 09:36 AKDT (8/04 17:36 UTC)
予報対象時間: 4日10時 AKDT ~ 5日10時 AKDT
風向・風速東 6m/s
視程8050m
天気現象弱い雨 もや
全天の4割程度の雲 雲底高度 460m
全天の8割程度の雲 雲底高度 1070m
全天を覆う雲 雲底高度 1520m
4日12時 AKDT から
風向・風速東南東 7m/s
視程10km以上
天気現象弱い雨
全天の4割程度の雲 雲底高度 760m
全天を覆う雲 雲底高度 1520m
4日17時 AKDT から
風向・風速東 6m/s
視程8050m
天気現象弱い雨 もや
全天の4割程度の雲 雲底高度 460m
全天の8割程度の雲 雲底高度 760m
全天を覆う雲 雲底高度 1520m
4日23時 AKDT から
風向・風速東 5m/s
視程10km以上
天気現象弱い雨
全天の4割程度の雲 雲底高度 760m
全天を覆う雲 雲底高度 1520m
5日9時 AKDT から
風向・風速東 3m/s
視程10km以上
天気現象弱いしゅう雨
全天を覆う雲 雲底高度 1520m
PAJN 041736Z 0418/0518 10012KT 5SM -RA BR SCT015 BKN035 OVC050
FM042000 11013KT P6SM -RA SCT025 OVC050
FM050100 10012KT 5SM -RA BR SCT015 BKN025 OVC050
FM050700 10010KT P6SM -RA SCT025 OVC050
FM051700 10006KT P6SM -SHRA OVC050